sensor_id;sensor_type;location;lat;lon;timestamp;temperature;humidity
42085;DHT22;27746;52.228;20.890;2023-03-29T00:00:09;-1.60;95.50
42085;DHT22;27746;52.228;20.890;2023-03-29T00:05:07;-1.60;95.60
42085;DHT22;27746;52.228;20.890;2023-03-29T00:07:35;-1.70;95.60
42085;DHT22;27746;52.228;20.890;2023-03-29T00:10:04;-1.70;95.60
42085;DHT22;27746;52.228;20.890;2023-03-29T00:12:32;-1.70;95.70
42085;DHT22;27746;52.228;20.890;2023-03-29T00:19:53;-1.80;95.70
42085;DHT22;27746;52.228;20.890;2023-03-29T00:22:20;-1.80;95.80
42085;DHT22;27746;52.228;20.890;2023-03-29T00:24:47;-1.80;95.80
42085;DHT22;27746;52.228;20.890;2023-03-29T00:27:15;-1.80;95.90
42085;DHT22;27746;52.228;20.890;2023-03-29T00:29:42;-1.80;95.80
42085;DHT22;27746;52.228;20.890;2023-03-29T00:32:09;-1.80;95.80
42085;DHT22;27746;52.228;20.890;2023-03-29T00:34:36;-1.80;95.80
42085;DHT22;27746;52.228;20.890;2023-03-29T00:37:03;-0.40;96.20
42085;DHT22;27746;52.228;20.890;2023-03-29T00:39:33;-1.90;95.60
42085;DHT22;27746;52.228;20.890;2023-03-29T00:42:01;-1.90;95.60
42085;DHT22;27746;52.228;20.890;2023-03-29T00:45:01;-1.90;95.60
42085;DHT22;27746;52.228;20.890;2023-03-29T00:47:31;-1.90;95.70
42085;DHT22;27746;52.228;20.890;2023-03-29T00:50:03;-1.90;95.70
42085;DHT22;27746;52.228;20.890;2023-03-29T00:52:31;-2.00;95.60
42085;DHT22;27746;52.228;20.890;2023-03-29T00:55:02;-1.90;95.40
42085;DHT22;27746;52.228;20.890;2023-03-29T00:57:32;-1.90;95.40
42085;DHT22;27746;52.228;20.890;2023-03-29T01:00:03;-2.00;95.30
42085;DHT22;27746;52.228;20.890;2023-03-29T01:02:35;-2.00;95.30
42085;DHT22;27746;52.228;20.890;2023-03-29T01:05:06;-2.00;95.30
42085;DHT22;27746;52.228;20.890;2023-03-29T01:07:39;-1.90;95.30
42085;DHT22;27746;52.228;20.890;2023-03-29T01:10:10;-1.70;95.30
42085;DHT22;27746;52.228;20.890;2023-03-29T01:12:41;-2.00;95.10
42085;DHT22;27746;52.228;20.890;2023-03-29T01:15:11;-2.00;95.10
42085;DHT22;27746;52.228;20.890;2023-03-29T01:17:39;-2.00;95.20
42085;DHT22;27746;52.228;20.890;2023-03-29T01:20:11;-2.00;95.10
42085;DHT22;27746;52.228;20.890;2023-03-29T01:22:54;-2.00;95.10
42085;DHT22;27746;52.228;20.890;2023-03-29T01:25:31;-2.10;95.10
42085;DHT22;27746;52.228;20.890;2023-03-29T01:28:04;-2.70;95.00
42085;DHT22;27746;52.228;20.890;2023-03-29T01:30:36;-2.10;95.20
42085;DHT22;27746;52.228;20.890;2023-03-29T01:33:10;-2.10;95.20
42085;DHT22;27746;52.228;20.890;2023-03-29T01:35:42;-2.10;95.30
42085;DHT22;27746;52.228;20.890;2023-03-29T01:38:14;-2.10;95.40
42085;DHT22;27746;52.228;20.890;2023-03-29T01:43:19;-2.10;95.60
42085;DHT22;27746;52.228;20.890;2023-03-29T01:45:50;-2.10;95.70
42085;DHT22;27746;52.228;20.890;2023-03-29T01:48:24;-2.30;95.60
42085;DHT22;27746;52.228;20.890;2023-03-29T01:50:56;-2.20;95.70
42085;DHT22;27746;52.228;20.890;2023-03-29T01:53:29;-2.20;95.80
42085;DHT22;27746;52.228;20.890;2023-03-29T01:56:00;-2.20;95.90
42085;DHT22;27746;52.228;20.890;2023-03-29T01:58:32;-2.20;96.00
42085;DHT22;27746;52.228;20.890;2023-03-29T02:01:02;-2.20;96.10
42085;DHT22;27746;52.228;20.890;2023-03-29T02:03:31;-2.20;96.10
42085;DHT22;27746;52.228;20.890;2023-03-29T02:05:59;-3.70;95.80
42085;DHT22;27746;52.228;20.890;2023-03-29T02:08:28;-2.20;96.20
42085;DHT22;27746;52.228;20.890;2023-03-29T02:13:23;-2.20;96.40
42085;DHT22;27746;52.228;20.890;2023-03-29T02:15:51;-2.20;96.50
42085;DHT22;27746;52.228;20.890;2023-03-29T02:18:19;-2.20;96.60
42085;DHT22;27746;52.228;20.890;2023-03-29T02:20:47;-2.30;96.70
42085;DHT22;27746;52.228;20.890;2023-03-29T02:23:19;-2.30;96.80
42085;DHT22;27746;52.228;20.890;2023-03-29T02:25:48;-2.30;96.90
42085;DHT22;27746;52.228;20.890;2023-03-29T02:28:18;-2.30;97.00
42085;DHT22;27746;52.228;20.890;2023-03-29T02:30:52;-1.20;97.30
42085;DHT22;27746;52.228;20.890;2023-03-29T02:33:23;-2.30;97.20
42085;DHT22;27746;52.228;20.890;2023-03-29T02:35:55;-2.30;97.30
42085;DHT22;27746;52.228;20.890;2023-03-29T02:38:24;-2.30;97.30
42085;DHT22;27746;52.228;20.890;2023-03-29T02:40:53;-2.40;97.40
42085;DHT22;27746;52.228;20.890;2023-03-29T02:43:22;-2.40;97.50
42085;DHT22;27746;52.228;20.890;2023-03-29T02:45:51;-2.40;97.70
42085;DHT22;27746;52.228;20.890;2023-03-29T02:48:21;-2.30;97.80
42085;DHT22;27746;52.228;20.890;2023-03-29T02:50:53;-2.40;97.90
42085;DHT22;27746;52.228;20.890;2023-03-29T02:53:24;-2.30;98.00
42085;DHT22;27746;52.228;20.890;2023-03-29T02:55:54;-2.40;98.10
42085;DHT22;27746;52.228;20.890;2023-03-29T02:58:22;-2.40;98.10
42085;DHT22;27746;52.228;20.890;2023-03-29T03:00:52;-2.40;98.30
42085;DHT22;27746;52.228;20.890;2023-03-29T03:08:15;-2.40;98.60
42085;DHT22;27746;52.228;20.890;2023-03-29T03:13:10;-2.40;98.70
42085;DHT22;27746;52.228;20.890;2023-03-29T03:15:37;-2.40;98.90
42085;DHT22;27746;52.228;20.890;2023-03-29T03:18:09;-2.40;99.10
42085;DHT22;27746;52.228;20.890;2023-03-29T03:20:37;-2.40;99.10
42085;DHT22;27746;52.228;20.890;2023-03-29T03:28:01;-2.50;99.40
42085;DHT22;27746;52.228;20.890;2023-03-29T03:30:28;-2.50;99.40
42085;DHT22;27746;52.228;20.890;2023-03-29T03:35:23;-2.50;99.80
42085;DHT22;27746;52.228;20.890;2023-03-29T03:37:50;-2.50;99.90
42085;DHT22;27746;52.228;20.890;2023-03-29T03:45:12;-2.60;99.90
42085;DHT22;27746;52.228;20.890;2023-03-29T03:50:08;-2.60;99.90
42085;DHT22;27746;52.228;20.890;2023-03-29T03:52:37;-2.60;99.90
42085;DHT22;27746;52.228;20.890;2023-03-29T03:55:04;-2.60;99.90
42085;DHT22;27746;52.228;20.890;2023-03-29T04:00:03;-2.60;99.90
42085;DHT22;27746;52.228;20.890;2023-03-29T04:02:43;-2.60;99.90
42085;DHT22;27746;52.228;20.890;2023-03-29T04:05:13;-0.90;99.90
42085;DHT22;27746;52.228;20.890;2023-03-29T04:07:41;-2.60;99.90
42085;DHT22;27746;52.228;20.890;2023-03-29T04:10:08;-2.60;99.90
42085;DHT22;27746;52.228;20.890;2023-03-29T04:12:36;-2.60;99.90
42085;DHT22;27746;52.228;20.890;2023-03-29T04:15:05;-2.80;99.90
42085;DHT22;27746;52.228;20.890;2023-03-29T04:19:59;-2.60;99.90
42085;DHT22;27746;52.228;20.890;2023-03-29T04:22:31;-2.60;99.90
42085;DHT22;27746;52.228;20.890;2023-03-29T04:25:00;-2.60;99.90
42085;DHT22;27746;52.228;20.890;2023-03-29T04:27:27;-2.60;99.90
42085;DHT22;27746;52.228;20.890;2023-03-29T04:29:53;-2.60;99.90
42085;DHT22;27746;52.228;20.890;2023-03-29T04:32:20;-2.60;99.90
42085;DHT22;27746;52.228;20.890;2023-03-29T04:37:15;-2.50;99.90
42085;DHT22;27746;52.228;20.890;2023-03-29T04:39:47;-2.50;99.90
42085;DHT22;27746;52.228;20.890;2023-03-29T04:42:15;-2.40;99.90
42085;DHT22;27746;52.228;20.890;2023-03-29T04:44:42;-2.40;99.90
42085;DHT22;27746;52.228;20.890;2023-03-29T04:49:37;-2.30;99.90
42085;DHT22;27746;52.228;20.890;2023-03-29T04:52:04;-2.20;99.90
42085;DHT22;27746;52.228;20.890;2023-03-29T04:59:27;-2.00;99.90
42085;DHT22;27746;52.228;20.890;2023-03-29T05:01:54;-1.90;99.90
42085;DHT22;27746;52.228;20.890;2023-03-29T05:04:21;-1.90;99.90
42085;DHT22;27746;52.228;20.890;2023-03-29T05:16:38;-1.50;99.90
42085;DHT22;27746;52.228;20.890;2023-03-29T05:21:33;-1.40;99.90
42085;DHT22;27746;52.228;20.890;2023-03-29T05:24:00;-1.30;99.90
42085;DHT22;27746;52.228;20.890;2023-03-29T05:31:22;-1.00;99.90
42085;DHT22;27746;52.228;20.890;2023-03-29T05:33:51;-1.00;99.90
42085;DHT22;27746;52.228;20.890;2023-03-29T05:36:18;-0.90;99.90
42085;DHT22;27746;52.228;20.890;2023-03-29T05:41:13;-0.60;99.90
42085;DHT22;27746;52.228;20.890;2023-03-29T05:51:05;-0.20;99.90
42085;DHT22;27746;52.228;20.890;2023-03-29T05:53:33;-0.10;99.90
42085;DHT22;27746;52.228;20.890;2023-03-29T06:03:30;0.30;99.50
42085;DHT22;27746;52.228;20.890;2023-03-29T06:05:59;0.40;99.40
42085;DHT22;27746;52.228;20.890;2023-03-29T06:08:35;0.50;99.10
42085;DHT22;27746;52.228;20.890;2023-03-29T06:11:05;0.50;99.00
42085;DHT22;27746;52.228;20.890;2023-03-29T06:13:35;0.70;98.70
42085;DHT22;27746;52.228;20.890;2023-03-29T06:16:04;0.80;98.60
42085;DHT22;27746;52.228;20.890;2023-03-29T06:20:58;1.00;98.30
42085;DHT22;27746;52.228;20.890;2023-03-29T06:23:26;1.00;98.00
42085;DHT22;27746;52.228;20.890;2023-03-29T06:25:55;1.10;98.00
42085;DHT22;27746;52.228;20.890;2023-03-29T06:28:25;1.20;98.00
42085;DHT22;27746;52.228;20.890;2023-03-29T06:38:17;1.60;97.20
42085;DHT22;27746;52.228;20.890;2023-03-29T06:43:14;1.80;97.00
42085;DHT22;27746;52.228;20.890;2023-03-29T06:45:49;1.90;96.60
42085;DHT22;27746;52.228;20.890;2023-03-29T06:50:47;2.10;96.40
42085;DHT22;27746;52.228;20.890;2023-03-29T06:55:42;2.20;96.00
42085;DHT22;27746;52.228;20.890;2023-03-29T07:00:37;2.60;95.80
42085;DHT22;27746;52.228;20.890;2023-03-29T07:03:07;2.70;95.40
42085;DHT22;27746;52.228;20.890;2023-03-29T07:10:42;3.00;94.70
42085;DHT22;27746;52.228;20.890;2023-03-29T07:13:11;3.00;95.00
42085;DHT22;27746;52.228;20.890;2023-03-29T07:15:40;3.10;94.50
42085;DHT22;27746;52.228;20.890;2023-03-29T07:18:08;3.20;94.30
42085;DHT22;27746;52.228;20.890;2023-03-29T07:20:37;3.40;94.40
42085;DHT22;27746;52.228;20.890;2023-03-29T07:23:07;3.50;94.10
42085;DHT22;27746;52.228;20.890;2023-03-29T07:25:34;3.60;93.70
42085;DHT22;27746;52.228;20.890;2023-03-29T07:28:01;3.70;93.90
42085;DHT22;27746;52.228;20.890;2023-03-29T07:30:30;3.90;93.20
42085;DHT22;27746;52.228;20.890;2023-03-29T07:32:58;3.90;93.00
42085;DHT22;27746;52.228;20.890;2023-03-29T07:40:21;4.20;92.30
42085;DHT22;27746;52.228;20.890;2023-03-29T07:42:50;4.30;92.00
42085;DHT22;27746;52.228;20.890;2023-03-29T07:45:22;4.40;91.90
42085;DHT22;27746;52.228;20.890;2023-03-29T07:47:53;4.50;91.90
42085;DHT22;27746;52.228;20.890;2023-03-29T07:50:21;4.70;91.60
42085;DHT22;27746;52.228;20.890;2023-03-29T07:55:17;5.00;90.80
42085;DHT22;27746;52.228;20.890;2023-03-29T08:00:12;5.10;90.40
42085;DHT22;27746;52.228;20.890;2023-03-29T08:02:41;5.20;89.20
42085;DHT22;27746;52.228;20.890;2023-03-29T08:05:10;5.30;89.20
42085;DHT22;27746;52.228;20.890;2023-03-29T08:07:40;5.40;88.50
42085;DHT22;27746;52.228;20.890;2023-03-29T08:10:09;5.40;87.40
42085;DHT22;27746;52.228;20.890;2023-03-29T08:12:37;5.50;86.80
42085;DHT22;27746;52.228;20.890;2023-03-29T08:15:07;5.60;85.70
42085;DHT22;27746;52.228;20.890;2023-03-29T08:20:03;5.70;85.00
42085;DHT22;27746;52.228;20.890;2023-03-29T08:22:32;5.70;84.90
42085;DHT22;27746;52.228;20.890;2023-03-29T08:25:01;5.90;84.60
42085;DHT22;27746;52.228;20.890;2023-03-29T08:27:30;6.00;83.70
42085;DHT22;27746;52.228;20.890;2023-03-29T08:29:57;6.00;82.10
42085;DHT22;27746;52.228;20.890;2023-03-29T08:34:52;6.10;82.30
42085;DHT22;27746;52.228;20.890;2023-03-29T08:37:19;6.20;81.30
42085;DHT22;27746;52.228;20.890;2023-03-29T08:39:48;6.40;81.50
42085;DHT22;27746;52.228;20.890;2023-03-29T08:42:40;6.40;80.70
42085;DHT22;27746;52.228;20.890;2023-03-29T08:45:19;6.60;79.40
42085;DHT22;27746;52.228;20.890;2023-03-29T08:47:54;6.70;79.10
42085;DHT22;27746;52.228;20.890;2023-03-29T08:50:31;6.80;78.30
42085;DHT22;27746;52.228;20.890;2023-03-29T08:53:05;6.90;74.10
42085;DHT22;27746;52.228;20.890;2023-03-29T08:55:37;7.00;73.30
42085;DHT22;27746;52.228;20.890;2023-03-29T08:58:09;7.10;70.10
42085;DHT22;27746;52.228;20.890;2023-03-29T09:00:41;7.20;68.90
42085;DHT22;27746;52.228;20.890;2023-03-29T09:03:16;7.30;68.20
42085;DHT22;27746;52.228;20.890;2023-03-29T09:05:47;7.20;67.10
42085;DHT22;27746;52.228;20.890;2023-03-29T09:08:15;7.40;66.60
42085;DHT22;27746;52.228;20.890;2023-03-29T09:10:45;7.50;64.10
42085;DHT22;27746;52.228;20.890;2023-03-29T09:13:27;7.50;64.00
42085;DHT22;27746;52.228;20.890;2023-03-29T09:16:03;7.70;62.90
42085;DHT22;27746;52.228;20.890;2023-03-29T09:18:38;7.70;59.80
42085;DHT22;27746;52.228;20.890;2023-03-29T09:21:15;7.80;60.90
42085;DHT22;27746;52.228;20.890;2023-03-29T09:24:02;7.70;59.10
42085;DHT22;27746;52.228;20.890;2023-03-29T09:26:39;7.70;58.80
42085;DHT22;27746;52.228;20.890;2023-03-29T09:29:22;7.80;55.70
42085;DHT22;27746;52.228;20.890;2023-03-29T09:31:52;7.90;56.30
42085;DHT22;27746;52.228;20.890;2023-03-29T09:34:22;8.10;56.90
42085;DHT22;27746;52.228;20.890;2023-03-29T09:36:57;8.10;57.40
42085;DHT22;27746;52.228;20.890;2023-03-29T09:39:28;8.30;57.90
42085;DHT22;27746;52.228;20.890;2023-03-29T09:41:58;8.50;55.50
42085;DHT22;27746;52.228;20.890;2023-03-29T09:44:31;8.60;55.60
42085;DHT22;27746;52.228;20.890;2023-03-29T09:47:06;8.70;56.10
42085;DHT22;27746;52.228;20.890;2023-03-29T09:49:38;8.70;53.70
42085;DHT22;27746;52.228;20.890;2023-03-29T09:52:10;8.80;53.00
42085;DHT22;27746;52.228;20.890;2023-03-29T09:57:07;9.10;53.80
42085;DHT22;27746;52.228;20.890;2023-03-29T09:59:36;9.20;51.70
42085;DHT22;27746;52.228;20.890;2023-03-29T10:02:07;9.20;52.10
42085;DHT22;27746;52.228;20.890;2023-03-29T10:04:34;9.30;52.10
42085;DHT22;27746;52.228;20.890;2023-03-29T10:07:03;9.10;50.30
42085;DHT22;27746;52.228;20.890;2023-03-29T10:09:32;9.20;50.90
42085;DHT22;27746;52.228;20.890;2023-03-29T10:12:01;9.20;50.80
42085;DHT22;27746;52.228;20.890;2023-03-29T10:14:34;9.10;50.70
42085;DHT22;27746;52.228;20.890;2023-03-29T10:17:10;9.40;53.10
42085;DHT22;27746;52.228;20.890;2023-03-29T10:19:47;9.60;52.30
42085;DHT22;27746;52.228;20.890;2023-03-29T10:22:17;9.80;51.20
42085;DHT22;27746;52.228;20.890;2023-03-29T10:24:47;9.90;52.70
42085;DHT22;27746;52.228;20.890;2023-03-29T10:27:19;10.10;52.00
42085;DHT22;27746;52.228;20.890;2023-03-29T10:32:24;10.30;51.00
42085;DHT22;27746;52.228;20.890;2023-03-29T10:34:57;10.50;52.70
42085;DHT22;27746;52.228;20.890;2023-03-29T10:37:27;10.70;52.80
42085;DHT22;27746;52.228;20.890;2023-03-29T10:39:54;10.80;52.60
42085;DHT22;27746;52.228;20.890;2023-03-29T10:42:23;10.90;52.40
42085;DHT22;27746;52.228;20.890;2023-03-29T10:44:53;11.00;53.00
42085;DHT22;27746;52.228;20.890;2023-03-29T10:47:22;11.00;51.60
42085;DHT22;27746;52.228;20.890;2023-03-29T10:49:51;11.00;52.40
42085;DHT22;27746;52.228;20.890;2023-03-29T10:52:19;11.00;53.20
42085;DHT22;27746;52.228;20.890;2023-03-29T10:54:48;11.10;52.30
42085;DHT22;27746;52.228;20.890;2023-03-29T10:57:22;11.30;51.50
42085;DHT22;27746;52.228;20.890;2023-03-29T10:59:55;11.40;51.70
42085;DHT22;27746;52.228;20.890;2023-03-29T11:02:54;11.70;51.80
42085;DHT22;27746;52.228;20.890;2023-03-29T11:05:29;11.70;49.40
42085;DHT22;27746;52.228;20.890;2023-03-29T11:08:19;11.80;50.30
42085;DHT22;27746;52.228;20.890;2023-03-29T11:10:55;11.90;51.30
42085;DHT22;27746;52.228;20.890;2023-03-29T11:13:30;12.30;49.10
42085;DHT22;27746;52.228;20.890;2023-03-29T11:16:08;12.50;49.10
42085;DHT22;27746;52.228;20.890;2023-03-29T11:21:52;13.20;47.20
42085;DHT22;27746;52.228;20.890;2023-03-29T11:24:36;13.50;46.90
42085;DHT22;27746;52.228;20.890;2023-03-29T11:27:15;13.90;47.50
42085;DHT22;27746;52.228;20.890;2023-03-29T11:29:58;14.00;43.50
42085;DHT22;27746;52.228;20.890;2023-03-29T11:32:34;14.20;43.90
42085;DHT22;27746;52.228;20.890;2023-03-29T11:35:18;14.40;43.10
42085;DHT22;27746;52.228;20.890;2023-03-29T11:37:54;14.40;43.50
42085;DHT22;27746;52.228;20.890;2023-03-29T11:40:34;14.80;44.00
42085;DHT22;27746;52.228;20.890;2023-03-29T11:43:08;15.30;44.40
42085;DHT22;27746;52.228;20.890;2023-03-29T11:45:42;15.80;43.30
42085;DHT22;27746;52.228;20.890;2023-03-29T11:48:17;15.90;43.70
42085;DHT22;27746;52.228;20.890;2023-03-29T11:50:50;16.10;43.30
42085;DHT22;27746;52.228;20.890;2023-03-29T11:53:23;16.90;40.40
42085;DHT22;27746;52.228;20.890;2023-03-29T11:55:53;17.10;37.20
42085;DHT22;27746;52.228;20.890;2023-03-29T11:58:26;17.00;38.30
42085;DHT22;27746;52.228;20.890;2023-03-29T12:00:54;17.00;38.90
42085;DHT22;27746;52.228;20.890;2023-03-29T12:03:33;17.60;38.30
42085;DHT22;27746;52.228;20.890;2023-03-29T12:06:06;17.60;38.70
42085;DHT22;27746;52.228;20.890;2023-03-29T12:08:38;18.10;37.90
42085;DHT22;27746;52.228;20.890;2023-03-29T12:11:15;18.80;38.10
42085;DHT22;27746;52.228;20.890;2023-03-29T12:13:55;19.20;37.80
42085;DHT22;27746;52.228;20.890;2023-03-29T12:16:26;20.10;37.50
42085;DHT22;27746;52.228;20.890;2023-03-29T12:18:57;20.70;36.50
42085;DHT22;27746;52.228;20.890;2023-03-29T12:21:28;21.00;35.40
42085;DHT22;27746;52.228;20.890;2023-03-29T12:23:57;20.90;34.90
42085;DHT22;27746;52.228;20.890;2023-03-29T12:26:40;20.70;34.40
42085;DHT22;27746;52.228;20.890;2023-03-29T12:29:32;20.90;34.00
42085;DHT22;27746;52.228;20.890;2023-03-29T12:32:10;21.60;33.90
42085;DHT22;27746;52.228;20.890;2023-03-29T12:34:52;21.90;33.80
42085;DHT22;27746;52.228;20.890;2023-03-29T12:37:31;21.90;32.90
42085;DHT22;27746;52.228;20.890;2023-03-29T12:40:11;22.00;33.50
42085;DHT22;27746;52.228;20.890;2023-03-29T12:42:44;21.80;33.00
42085;DHT22;27746;52.228;20.890;2023-03-29T12:45:16;22.30;33.10
42085;DHT22;27746;52.228;20.890;2023-03-29T12:47:45;23.00;32.90
42085;DHT22;27746;52.228;20.890;2023-03-29T12:50:23;23.20;32.80
42085;DHT22;27746;52.228;20.890;2023-03-29T12:53:04;23.80;32.30
42085;DHT22;27746;52.228;20.890;2023-03-29T12:55:46;23.90;32.30
42085;DHT22;27746;52.228;20.890;2023-03-29T12:58:35;24.30;32.10
42085;DHT22;27746;52.228;20.890;2023-03-29T13:01:08;24.90;32.50
42085;DHT22;27746;52.228;20.890;2023-03-29T13:03:45;25.60;31.70
42085;DHT22;27746;52.228;20.890;2023-03-29T13:06:26;26.10;31.50
42085;DHT22;27746;52.228;20.890;2023-03-29T13:09:02;25.90;29.90
42085;DHT22;27746;52.228;20.890;2023-03-29T13:11:33;24.90;29.70
42085;DHT22;27746;52.228;20.890;2023-03-29T13:14:04;24.70;30.00
42085;DHT22;27746;52.228;20.890;2023-03-29T13:16:35;24.70;30.50
42085;DHT22;27746;52.228;20.890;2023-03-29T13:19:14;24.80;30.80
42085;DHT22;27746;52.228;20.890;2023-03-29T13:21:53;24.70;30.90
42085;DHT22;27746;52.228;20.890;2023-03-29T13:27:30;23.80;30.80
42085;DHT22;27746;52.228;20.890;2023-03-29T13:30:33;25.00;30.00
42085;DHT22;27746;52.228;20.890;2023-03-29T13:33:16;25.20;30.30
42085;DHT22;27746;52.228;20.890;2023-03-29T13:35:52;29.00;32.40
42085;DHT22;27746;52.228;20.890;2023-03-29T13:38:24;25.50;29.70
42085;DHT22;27746;52.228;20.890;2023-03-29T13:40:59;24.80;28.80
42085;DHT22;27746;52.228;20.890;2023-03-29T13:43:33;24.60;30.00
42085;DHT22;27746;52.228;20.890;2023-03-29T13:46:22;24.90;30.50
42085;DHT22;27746;52.228;20.890;2023-03-29T13:48:57;25.60;30.70
42085;DHT22;27746;52.228;20.890;2023-03-29T13:51:38;25.90;29.70
42085;DHT22;27746;52.228;20.890;2023-03-29T13:54:19;25.70;28.90
42085;DHT22;27746;52.228;20.890;2023-03-29T13:57:00;24.90;29.20
42085;DHT22;27746;52.228;20.890;2023-03-29T13:59:35;24.50;29.40
42085;DHT22;27746;52.228;20.890;2023-03-29T14:02:04;24.50;29.80
42085;DHT22;27746;52.228;20.890;2023-03-29T14:04:36;25.10;29.70
42085;DHT22;27746;52.228;20.890;2023-03-29T14:07:07;25.20;29.50
42085;DHT22;27746;52.228;20.890;2023-03-29T14:09:38;25.20;29.00
42085;DHT22;27746;52.228;20.890;2023-03-29T14:12:09;24.60;28.70
42085;DHT22;27746;52.228;20.890;2023-03-29T14:14:40;24.50;29.20
42085;DHT22;27746;52.228;20.890;2023-03-29T14:17:15;24.70;29.30
42085;DHT22;27746;52.228;20.890;2023-03-29T14:19:43;24.50;28.30
42085;DHT22;27746;52.228;20.890;2023-03-29T14:22:14;24.70;29.30
42085;DHT22;27746;52.228;20.890;2023-03-29T14:24:46;23.60;28.90
42085;DHT22;27746;52.228;20.890;2023-03-29T14:27:14;23.60;29.40
42085;DHT22;27746;52.228;20.890;2023-03-29T14:29:46;22.90;29.20
42085;DHT22;27746;52.228;20.890;2023-03-29T14:32:14;21.70;29.20
42085;DHT22;27746;52.228;20.890;2023-03-29T14:37:11;20.00;30.40
42085;DHT22;27746;52.228;20.890;2023-03-29T14:39:39;18.90;31.20
42085;DHT22;27746;52.228;20.890;2023-03-29T14:42:31;18.00;32.40
42085;DHT22;27746;52.228;20.890;2023-03-29T14:45:02;17.00;33.20
42085;DHT22;27746;52.228;20.890;2023-03-29T14:47:30;16.20;33.90
42085;DHT22;27746;52.228;20.890;2023-03-29T14:52:29;14.50;36.20
42085;DHT22;27746;52.228;20.890;2023-03-29T14:54:59;13.80;36.20
42085;DHT22;27746;52.228;20.890;2023-03-29T14:57:31;13.20;37.20
42085;DHT22;27746;52.228;20.890;2023-03-29T15:00:03;12.70;37.60
42085;DHT22;27746;52.228;20.890;2023-03-29T15:02:37;12.30;38.30
42085;DHT22;27746;52.228;20.890;2023-03-29T15:05:29;11.80;38.80
42085;DHT22;27746;52.228;20.890;2023-03-29T15:07:57;11.90;39.40
42085;DHT22;27746;52.228;20.890;2023-03-29T15:10:24;11.40;39.60
42085;DHT22;27746;52.228;20.890;2023-03-29T15:12:52;11.10;39.70
42085;DHT22;27746;52.228;20.890;2023-03-29T15:15:22;10.90;40.30
42085;DHT22;27746;52.228;20.890;2023-03-29T15:17:50;10.80;40.30
42085;DHT22;27746;52.228;20.890;2023-03-29T15:20:19;11.20;41.20
42085;DHT22;27746;52.228;20.890;2023-03-29T15:22:57;10.80;41.20
42085;DHT22;27746;52.228;20.890;2023-03-29T15:25:26;10.80;41.60
42085;DHT22;27746;52.228;20.890;2023-03-29T15:27:55;10.70;41.30
42085;DHT22;27746;52.228;20.890;2023-03-29T15:30:32;10.60;42.10
42085;DHT22;27746;52.228;20.890;2023-03-29T15:33:13;10.50;42.50
42085;DHT22;27746;52.228;20.890;2023-03-29T15:35:44;10.50;42.10
42085;DHT22;27746;52.228;20.890;2023-03-29T15:38:12;10.50;42.20
42085;DHT22;27746;52.228;20.890;2023-03-29T15:45:37;10.50;42.90
42085;DHT22;27746;52.228;20.890;2023-03-29T15:48:14;10.50;42.90
42085;DHT22;27746;52.228;20.890;2023-03-29T15:50:42;10.50;43.00
42085;DHT22;27746;52.228;20.890;2023-03-29T15:55:39;10.40;42.20
42085;DHT22;27746;52.228;20.890;2023-03-29T15:58:08;10.40;42.40
42085;DHT22;27746;52.228;20.890;2023-03-29T16:00:38;10.30;42.40
42085;DHT22;27746;52.228;20.890;2023-03-29T16:03:10;10.20;43.20
42085;DHT22;27746;52.228;20.890;2023-03-29T16:08:08;10.00;43.40
42085;DHT22;27746;52.228;20.890;2023-03-29T16:10:35;9.90;43.10
42085;DHT22;27746;52.228;20.890;2023-03-29T16:15:34;9.70;43.30
42085;DHT22;27746;52.228;20.890;2023-03-29T16:18:03;9.50;43.40
42085;DHT22;27746;52.228;20.890;2023-03-29T16:32:46;9.00;44.70
42085;DHT22;27746;52.228;20.890;2023-03-29T16:35:19;9.00;44.60
42085;DHT22;27746;52.228;20.890;2023-03-29T16:37:47;8.90;44.80
42085;DHT22;27746;52.228;20.890;2023-03-29T16:42:41;8.60;46.50
42085;DHT22;27746;52.228;20.890;2023-03-29T16:45:11;8.60;46.80
42085;DHT22;27746;52.228;20.890;2023-03-29T16:47:38;8.60;46.70
42085;DHT22;27746;52.228;20.890;2023-03-29T16:50:09;8.50;46.20
42085;DHT22;27746;52.228;20.890;2023-03-29T16:52:38;8.50;46.90
42085;DHT22;27746;52.228;20.890;2023-03-29T16:55:06;8.40;47.10
42085;DHT22;27746;52.228;20.890;2023-03-29T16:57:33;8.40;47.50
42085;DHT22;27746;52.228;20.890;2023-03-29T17:00:00;8.40;47.90
42085;DHT22;27746;52.228;20.890;2023-03-29T17:02:29;8.20;48.30
42085;DHT22;27746;52.228;20.890;2023-03-29T17:09:53;8.50;49.50
42085;DHT22;27746;52.228;20.890;2023-03-29T17:19:43;8.00;50.10
42085;DHT22;27746;52.228;20.890;2023-03-29T17:22:09;8.10;50.30
42085;DHT22;27746;52.228;20.890;2023-03-29T17:27:05;8.10;50.30
42085;DHT22;27746;52.228;20.890;2023-03-29T17:29:32;8.00;50.60
42085;DHT22;27746;52.228;20.890;2023-03-29T17:36:53;8.00;50.80
42085;DHT22;27746;52.228;20.890;2023-03-29T17:41:49;7.90;51.10
42085;DHT22;27746;52.228;20.890;2023-03-29T17:44:18;7.90;51.10
42085;DHT22;27746;52.228;20.890;2023-03-29T17:46:45;7.90;51.20
42085;DHT22;27746;52.228;20.890;2023-03-29T17:54:07;7.70;51.30
42085;DHT22;27746;52.228;20.890;2023-03-29T17:56:34;7.90;51.50
42085;DHT22;27746;52.228;20.890;2023-03-29T18:01:30;7.90;51.70
42085;DHT22;27746;52.228;20.890;2023-03-29T18:03:57;7.80;51.70
42085;DHT22;27746;52.228;20.890;2023-03-29T18:08:53;7.90;52.10
42085;DHT22;27746;52.228;20.890;2023-03-29T18:11:26;7.80;52.20
42085;DHT22;27746;52.228;20.890;2023-03-29T18:13:59;7.80;52.20
42085;DHT22;27746;52.228;20.890;2023-03-29T18:16:26;7.80;52.70
42085;DHT22;27746;52.228;20.890;2023-03-29T18:19:06;7.70;52.40
42085;DHT22;27746;52.228;20.890;2023-03-29T18:24:02;7.70;52.40
42085;DHT22;27746;52.228;20.890;2023-03-29T18:26:31;7.70;52.90
42085;DHT22;27746;52.228;20.890;2023-03-29T18:28:58;7.70;52.60
42085;DHT22;27746;52.228;20.890;2023-03-29T18:33:55;7.60;52.50
42085;DHT22;27746;52.228;20.890;2023-03-29T18:36:23;7.60;52.60
42085;DHT22;27746;52.228;20.890;2023-03-29T18:41:21;7.60;53.30
42085;DHT22;27746;52.228;20.890;2023-03-29T18:46:16;7.60;52.90
42085;DHT22;27746;52.228;20.890;2023-03-29T18:53:40;7.50;53.10
42085;DHT22;27746;52.228;20.890;2023-03-29T18:56:09;7.50;53.30
42085;DHT22;27746;52.228;20.890;2023-03-29T18:58:36;7.50;53.30
42085;DHT22;27746;52.228;20.890;2023-03-29T19:01:04;7.40;53.40
42085;DHT22;27746;52.228;20.890;2023-03-29T19:10:59;7.30;53.90
42085;DHT22;27746;52.228;20.890;2023-03-29T19:23:15;7.30;54.40
42085;DHT22;27746;52.228;20.890;2023-03-29T19:25:50;7.30;54.50
42085;DHT22;27746;52.228;20.890;2023-03-29T19:28:18;7.20;54.50
42085;DHT22;27746;52.228;20.890;2023-03-29T19:30:45;7.20;54.90
42085;DHT22;27746;52.228;20.890;2023-03-29T19:33:13;7.20;54.80
42085;DHT22;27746;52.228;20.890;2023-03-29T19:38:07;7.10;55.10
42085;DHT22;27746;52.228;20.890;2023-03-29T19:43:02;7.10;55.30